Time;durP1;ratioP1;P1;durP2;ratioP2;P2;SDS_P1;SDS_P2;PMS_P1;PMS_P2;Temp;Humidity;BMP_temperature;BMP_pressure;BME280_temperature;BME280_humidity;BME280_pressure;Samples;Min_cycle;Max_cycle;Signal;HPM_P1;HPM_P2
2023/04/08 00:00:15;;;;;;;10.57;7.18;;;;;;;7.93;100.00;101704.06;5993660;23;20395;-67
2023/04/08 00:02:42;;;;;;;9.05;8.23;;;;;;;7.94;100.00;101697.97;5966334;23;20026;-66
2023/04/08 00:05:09;;;;;;;11.93;6.40;;;;;;;7.58;100.00;101653.56;6000360;23;20051;-68
2023/04/08 00:07:36;;;;;;;16.98;8.30;;;;;;;6.96;100.00;101558.41;5988357;23;20010;-67
2023/04/08 00:10:03;;;;;;;10.75;7.95;;;;;;;7.86;100.00;101708.59;6002420;23;20041;-67
2023/04/08 00:12:29;;;;;;;16.05;7.45;;;;;;;7.86;100.00;101716.44;5996629;23;20025;-68
2023/04/08 00:14:58;;;;;;;8.95;6.13;;;;;;;7.62;100.00;101668.25;6003770;23;20030;-67
2023/04/08 00:17:25;;;;;;;14.52;9.48;;;;;;;7.95;100.00;101708.38;5991557;23;20549;-68
2023/04/08 00:19:52;;;;;;;10.65;7.47;;;;;;;8.01;100.00;101717.81;5997137;23;20577;-66
2023/04/08 00:22:18;;;;;;;11.10;8.07;;;;;;;7.99;100.00;101710.00;5997392;23;20078;-64
2023/04/08 00:24:45;;;;;;;23.20;9.38;;;;;;;7.51;100.00;101651.97;5988297;23;20031;-65
2023/04/08 00:27:11;;;;;;;17.05;8.35;;;;;;;7.99;100.00;101715.22;5998221;23;20034;-65
2023/04/08 00:29:38;;;;;;;13.05;9.20;;;;;;;7.98;100.00;101707.44;5992576;23;20532;-65
2023/04/08 00:32:04;;;;;;;10.23;8.02;;;;;;;7.98;100.00;101713.53;6000719;23;20019;-64
2023/04/08 00:34:30;;;;;;;9.32;7.93;;;;;;;7.56;100.00;101669.25;5988250;23;20672;-65
2023/04/08 00:36:57;;;;;;;10.77;7.10;;;;;;;7.85;100.00;101722.56;6001447;23;20458;-64
2023/04/08 00:39:23;;;;;;;13.43;8.27;;;;;;;7.88;100.00;101727.72;5990583;23;20154;-64
2023/04/08 00:41:50;;;;;;;13.13;8.15;;;;;;;7.89;100.00;101729.44;6002176;23;20019;-65
2023/04/08 00:44:16;;;;;;;8.63;7.80;;;;;;;7.72;100.00;101705.47;5999835;23;20043;-65
2023/04/08 00:46:43;;;;;;;14.40;8.52;;;;;;;7.93;100.00;101723.22;5988166;23;20078;-66
2023/04/08 00:49:09;;;;;;;18.27;8.00;;;;;;;7.79;100.00;101722.72;6001416;23;20038;-65
2023/04/08 00:51:36;;;;;;;14.20;9.52;;;;;;;7.74;100.00;101724.59;5992462;23;20438;-66
2023/04/08 00:54:06;;;;;;;15.15;7.95;;;;;;;7.64;100.00;101699.56;5997506;23;20034;-65
2023/04/08 00:56:33;;;;;;;10.65;9.32;;;;;;;7.31;100.00;101647.22;5987660;23;20031;-66
2023/04/08 00:59:00;;;;;;;10.63;9.20;;;;;;;7.74;100.00;101703.69;6002189;23;20097;-65
2023/04/08 01:02:05;;;;;;;13.38;8.05;;;;;;;7.80;100.00;101721.81;5986949;23;21859;-64
2023/04/08 01:04:46;;;;;;;7.55;6.93;;;;;;;7.83;100.00;101729.56;6000755;23;20043;-65
2023/04/08 01:07:17;;;;;;;13.05;8.93;;;;;;;7.62;100.00;101680.44;5996421;23;20026;-65
2023/04/08 01:09:50;;;;;;;9.40;8.38;;;;;;;7.89;100.00;101726.81;6003508;23;20026;-66
2023/04/08 01:12:26;;;;;;;11.07;7.47;;;;;;;7.95;100.00;101731.88;5989206;23;20026;-66
2023/04/08 01:15:00;;;;;;;15.48;8.15;;;;;;;7.53;100.00;101656.25;5996582;23;20748;-67
2023/04/08 01:17:29;;;;;;;9.18;7.88;;;;;;;7.61;100.00;101670.91;5995377;23;20035;-66
2023/04/08 01:19:58;;;;;;;8.32;7.50;;;;;;;7.88;100.00;101729.50;5999650;23;20712;-65
2023/04/08 01:22:45;;;;;;;8.38;7.50;;;;;;;7.90;100.00;101728.53;5998106;23;20058;-66
2023/04/08 01:25:16;;;;;;;8.48;7.45;;;;;;;7.98;100.00;101739.66;5998330;23;20047;-67
2023/04/08 01:27:44;;;;;;;8.77;7.80;;;;;;;7.65;100.00;101686.47;5991616;23;20026;-66
2023/04/08 01:30:11;;;;;;;8.77;7.72;;;;;;;7.91;100.00;101727.63;5996348;23;20788;-66
2023/04/08 01:32:40;;;;;;;9.38;7.85;;;;;;;7.88;100.00;101738.19;5993742;23;20742;-66
2023/04/08 01:35:08;;;;;;;9.40;8.35;;;;;;;7.84;100.00;101740.88;5990824;23;20054;-66
2023/04/08 01:37:35;;;;;;;9.90;7.60;;;;;;;7.86;100.00;101744.31;5997363;23;20019;-68
2023/04/08 01:40:05;;;;;;;10.57;7.75;;;;;;;7.52;100.00;101712.03;5998878;23;20035;-65
2023/04/08 01:42:32;;;;;;;10.57;7.28;;;;;;;7.31;100.00;101655.06;5989683;23;20031;-65
2023/04/08 01:44:59;;;;;;;11.43;8.90;;;;;;;7.85;100.00;101737.38;5998018;23;20027;-66
2023/04/08 01:47:28;;;;;;;9.07;8.18;;;;;;;7.86;100.00;101739.09;5997504;23;20087;-67
2023/04/08 01:49:56;;;;;;;14.07;8.95;;;;;;;7.61;100.00;101716.16;5998440;23;20085;-66
2023/04/08 01:52:24;;;;;;;9.98;7.28;;;;;;;7.85;100.00;101759.16;5993842;23;20031;-66
2023/04/08 01:54:50;;;;;;;7.80;6.25;;;;;;;7.81;100.00;101736.59;5991535;23;20026;-65
2023/04/08 01:57:26;;;;;;;11.50;8.27;;;;;;;7.62;100.00;101709.19;5995294;23;20031;-67
2023/04/08 01:59:59;;;;;;;14.20;7.90;;;;;;;7.84;100.00;101741.75;5994056;23;20051;-65
2023/04/08 02:02:26;;;;;;;;;;;;;;;7.69;100.00;101750.81;5992758;23;20027;-65
2023/04/08 02:04:53;;;;;;;25.00;7.45;;;;;;;7.26;100.00;101696.09;5994899;23;19921;-65
2023/04/08 02:07:20;;;;;;;11.95;8.60;;;;;;;7.48;100.00;101727.81;5996257;23;20019;-66
2023/04/08 02:09:46;;;;;;;9.95;7.07;;;;;;;7.57;100.00;101754.56;5992173;23;20520;-65
2023/04/08 02:12:13;;;;;;;12.57;8.82;;;;;;;7.38;100.00;101729.75;5996450;23;20034;-66
2023/04/08 02:14:40;;;;;;;11.82;8.35;;;;;;;7.41;100.00;101747.97;6003280;23;20031;-66
2023/04/08 02:17:12;;;;;;;16.65;7.82;;;;;;;7.40;100.00;101751.47;5996790;23;20018;-65
2023/04/08 02:19:54;;;;;;;10.35;7.72;;;;;;;7.05;100.00;101694.81;5991489;23;20082;-64
2023/04/08 02:22:46;;;;;;;13.80;7.97;;;;;;;7.41;100.00;101755.78;6007052;23;20023;-65
2023/04/08 02:25:14;;;;;;;11.15;7.95;;;;;;;7.14;100.00;101711.13;5992096;23;20023;-65
2023/04/08 02:27:43;;;;;;;7.88;7.25;;;;;;;6.86;100.00;101661.28;5989082;23;20039;-65
2023/04/08 02:30:12;;;;;;;8.82;7.72;;;;;;;7.47;100.00;101755.66;6005989;23;20093;-65
2023/04/08 02:32:38;;;;;;;10.18;6.80;;;;;;;7.53;100.00;101754.66;6011796;23;20042;-65
2023/04/08 02:35:06;;;;;;;19.48;8.60;;;;;;;7.53;100.00;101747.69;6016133;23;20081;-65
2023/04/08 02:37:33;;;;;;;7.93;7.15;;;;;;;7.53;100.00;101757.28;5999693;23;20019;-65
2023/04/08 02:39:59;;;;;;;9.50;8.18;;;;;;;7.65;100.00;101761.38;5999582;23;20119;-65
2023/04/08 02:42:26;;;;;;;9.32;7.43;;;;;;;7.69;100.00;101756.03;5996225;23;20070;-65
2023/04/08 02:44:52;;;;;;;9.50;7.55;;;;;;;7.69;100.00;101756.03;5995320;23;20392;-66
2023/04/08 02:47:19;;;;;;;7.75;7.00;;;;;;;7.67;100.00;101756.97;6002722;23;20033;-65
2023/04/08 02:49:45;;;;;;;7.65;6.88;;;;;;;7.76;100.00;101754.16;5982588;23;20474;-65
2023/04/08 02:52:11;;;;;;;7.70;6.95;;;;;;;7.73;100.00;101762.06;5993684;23;20027;-66
2023/04/08 02:54:38;;;;;;;9.30;7.35;;;;;;;7.68;100.00;101759.56;5996706;23;20035;-65
2023/04/08 02:57:04;;;;;;;8.15;7.40;;;;;;;7.68;100.00;101761.31;5999292;23;20089;-65
2023/04/08 02:59:31;;;;;;;7.80;7.07;;;;;;;7.72;100.00;101761.19;5993991;23;20059;-66
2023/04/08 03:01:57;;;;;;;10.65;7.85;;;;;;;7.36;100.00;101708.91;5995231;23;20082;-66
2023/04/08 03:04:24;;;;;;;7.38;6.65;;;;;;;7.65;100.00;101764.84;5991670;23;20317;-65
2023/04/08 03:06:50;;;;;;;8.88;8.07;;;;;;;7.52;100.00;101766.03;5988717;23;20012;-65
2023/04/08 03:09:16;;;;;;;11.55;7.07;;;;;;;7.50;100.00;101758.22;5971778;23;20578;-65
2023/04/08 03:11:43;;;;;;;11.38;9.45;;;;;;;7.68;100.00;101766.53;6001805;23;20026;-64
2023/04/08 03:14:10;;;;;;;8.60;7.88;;;;;;;7.36;100.00;101708.06;5993909;23;20047;-65
2023/04/08 03:16:36;;;;;;;11.52;7.53;;;;;;;7.76;100.00;101769.84;5998254;23;20704;-66
2023/04/08 03:19:03;;;;;;;10.90;7.60;;;;;;;7.52;100.00;101740.75;6000528;23;20035;-65
2023/04/08 03:21:30;;;;;;;7.88;7.05;;;;;;;7.71;100.00;101771.69;5992887;23;20047;-66
2023/04/08 03:23:57;;;;;;;9.98;6.72;;;;;;;7.31;100.00;101709.88;5993135;23;20034;-65
2023/04/08 03:26:25;;;;;;;11.52;7.63;;;;;;;7.78;100.00;101768.91;5991951;23;20056;-65
2023/04/08 03:28:54;;;;;;;9.57;8.45;;;;;;;7.59;100.00;101778.88;6001259;23;20043;-65
2023/04/08 03:31:21;;;;;;;8.70;7.15;;;;;;;7.65;100.00;101779.66;6000170;23;20091;-65
2023/04/08 03:33:47;;;;;;;11.85;8.77;;;;;;;7.61;100.00;101770.16;6003123;23;20027;-66
2023/04/08 03:36:14;;;;;;;20.00;10.60;;;;;;;7.67;100.00;101791.78;5988118;23;20036;-64
2023/04/08 03:38:40;;;;;;;8.05;7.32;;;;;;;7.57;100.00;101782.44;5978038;23;20016;-65
2023/04/08 03:41:07;;;;;;;11.13;9.13;;;;;;;7.65;100.00;101788.34;5990317;23;20027;-65
2023/04/08 03:43:33;;;;;;;13.95;8.70;;;;;;;7.34;100.00;101752.47;5994530;23;20055;-65
2023/04/08 03:46:03;;;;;;;10.30;8.50;;;;;;;7.66;100.00;101794.44;6001606;23;20095;-65
2023/04/08 03:48:29;;;;;;;21.98;8.40;;;;;;;7.68;100.00;101797.91;5991202;23;20023;-69
2023/04/08 03:50:56;;;;;;;12.15;9.35;;;;;;;7.50;100.00;101767.81;6001951;23;20031;-67
2023/04/08 03:53:22;;;;;;;12.40;10.10;;;;;;;7.68;100.00;101795.28;5995374;23;20090;-67
2023/04/08 03:55:51;;;;;;;12.55;10.15;;;;;;;7.37;100.00;101747.16;5998892;23;20081;-67
2023/04/08 03:58:18;;;;;;;12.02;10.00;;;;;;;7.75;100.00;101800.31;5995114;23;20027;-67
2023/04/08 04:00:44;;;;;;;15.48;7.47;;;;;;;7.75;100.00;101799.47;5989454;23;20066;-67
2023/04/08 04:03:11;;;;;;;12.55;8.85;;;;;;;7.67;100.00;101801.38;5974865;23;20050;-68
2023/04/08 04:05:39;;;;;;;21.90;8.85;;;;;;;7.75;100.00;101799.47;5994660;23;20031;-66
2023/04/08 04:08:06;;;;;;;11.43;8.45;;;;;;;7.77;100.00;101800.28;5993264;23;20097;-67
2023/04/08 04:10:32;;;;;;;12.25;8.98;;;;;;;7.78;100.00;101799.41;6000908;23;20041;-68
2023/04/08 04:13:01;;;;;;;8.98;8.18;;;;;;;7.66;100.00;101797.03;5991752;23;20450;-67
2023/04/08 04:15:27;;;;;;;11.75;8.65;;;;;;;7.59;100.00;101762.38;6000758;23;20053;-67
2023/04/08 04:17:54;;;;;;;18.33;10.55;;;;;;;7.84;100.00;101795.75;5991156;23;20516;-67
2023/04/08 04:20:20;;;;;;;18.38;9.75;;;;;;;7.89;100.00;101799.16;5992242;23;20031;-66
2023/04/08 04:22:47;;;;;;;10.23;7.80;;;;;;;7.90;100.00;101806.97;6005153;23;20027;-67
2023/04/08 04:25:13;;;;;;;13.18;9.32;;;;;;;7.85;100.00;101802.72;5996336;23;20019;-69
2023/04/08 04:27:40;;;;;;;8.18;7.07;;;;;;;7.81;100.00;101803.69;6006569;23;20019;-67
2023/04/08 04:30:08;;;;;;;12.98;8.32;;;;;;;7.50;100.00;101755.59;5995117;23;20082;-67
2023/04/08 04:32:34;;;;;;;17.17;10.23;;;;;;;7.73;100.00;101809.94;6000358;23;21509;-68
2023/04/08 04:35:01;;;;;;;13.93;10.27;;;;;;;7.66;100.00;101812.72;5998799;23;20096;-66
2023/04/08 04:37:27;;;;;;;17.48;10.93;;;;;;;7.33;100.00;101765.56;5988064;23;20031;-67
2023/04/08 04:39:54;;;;;;;20.20;10.25;;;;;;;7.42;100.00;101799.31;5996686;23;20077;-67
2023/04/08 04:42:20;;;;;;;18.35;9.63;;;;;;;7.27;100.00;101778.75;5998641;23;20675;-67
2023/04/08 04:44:46;;;;;;;13.65;8.80;;;;;;;7.67;100.00;101823.13;5998547;23;20704;-67
2023/04/08 04:47:13;;;;;;;10.77;7.78;;;;;;;7.60;100.00;101821.56;5990433;23;20703;-66
2023/04/08 04:49:39;;;;;;;17.52;9.95;;;;;;;7.44;100.00;101826.25;5997071;23;20030;-68
2023/04/08 04:52:06;;;;;;;13.20;8.40;;;;;;;7.31;100.00;101822.16;5992604;23;20034;-66
2023/04/08 04:54:32;;;;;;;11.93;9.32;;;;;;;6.24;100.00;101672.06;5991408;23;20681;-67
2023/04/08 04:56:59;;;;;;;13.95;10.13;;;;;;;7.41;100.00;101826.31;5999515;23;20035;-67
2023/04/08 04:59:26;;;;;;;13.48;8.68;;;;;;;7.29;100.00;101811.75;5987599;23;20038;-67
2023/04/08 05:01:52;;;;;;;14.88;9.30;;;;;;;7.23;100.00;101816.25;5990647;23;20882;-68
2023/04/08 05:04:19;;;;;;;10.75;8.05;;;;;;;7.25;100.00;101827.53;5991382;23;20042;-68
2023/04/08 05:06:45;;;;;;;13.50;9.50;;;;;;;6.96;100.00;101792.44;5991951;23;20091;-68
2023/04/08 05:09:12;;;;;;;14.73;9.20;;;;;;;7.21;100.00;101831.94;5984269;23;20031;-67
2023/04/08 05:11:38;;;;;;;18.85;11.00;;;;;;;7.19;100.00;101828.50;5999428;23;20019;-67
2023/04/08 05:14:06;;;;;;;21.10;11.52;;;;;;;7.22;100.00;101835.41;6001202;23;20051;-69
2023/04/08 05:16:32;;;;;;;16.77;10.48;;;;;;;6.93;100.00;101815.97;5998507;23;20426;-68
2023/04/08 05:18:59;;;;;;;21.17;9.15;;;;;;;6.78;100.00;101784.06;5998437;23;20023;-70
2023/04/08 05:21:26;;;;;;;19.13;10.75;;;;;;;6.70;100.00;101775.50;5985292;23;20056;-68
2023/04/08 05:23:53;;;;;;;16.05;10.98;;;;;;;7.06;100.00;101838.34;6001105;23;20031;-71
2023/04/08 05:26:20;;;;;;;22.85;10.80;;;;;;;6.85;100.00;101838.72;5995919;23;20019;-68
2023/04/08 05:28:50;;;;;;;16.65;11.10;;;;;;;6.56;100.00;101764.47;5985436;23;20054;-69
2023/04/08 05:31:18;;;;;;;12.52;9.75;;;;;;;7.12;100.00;101839.97;5996586;23;20038;-68
2023/04/08 05:33:45;;;;;;;17.17;9.77;;;;;;;7.05;100.00;101848.78;5994128;23;20047;-68
2023/04/08 05:36:12;;;;;;;14.52;11.40;;;;;;;6.96;100.00;101818.53;5994059;23;20038;-68
2023/04/08 05:38:39;;;;;;;17.67;10.07;;;;;;;7.20;100.00;101845.91;5996506;23;20051;-70
2023/04/08 05:41:06;;;;;;;18.92;10.90;;;;;;;7.29;100.00;101848.31;5999939;23;20042;-68
2023/04/08 05:43:33;;;;;;;17.05;10.35;;;;;;;7.22;100.00;101828.44;6002723;23;20273;-68
2023/04/08 05:45:59;;;;;;;45.90;11.15;;;;;;;7.36;100.00;101862.97;5999371;23;20023;-68
2023/04/08 05:48:26;;;;;;;14.95;9.80;;;;;;;7.45;100.00;101858.47;5997693;23;20097;-70
2023/04/08 05:50:52;;;;;;;18.30;11.45;;;;;;;7.16;100.00;101792.03;5998837;23;20865;-70
2023/04/08 05:53:18;;;;;;;21.92;11.73;;;;;;;7.59;100.00;101859.03;5994706;23;20043;-69
2023/04/08 05:55:47;;;;;;;17.10;11.20;;;;;;;7.49;100.00;101868.78;5999893;23;20040;-70
2023/04/08 05:58:14;;;;;;;18.65;11.23;;;;;;;7.63;100.00;101867.66;5994444;23;20038;-70
2023/04/08 06:00:41;;;;;;;20.65;11.32;;;;;;;7.69;100.00;101872.75;6001024;23;20019;-68
2023/04/08 06:03:07;;;;;;;24.35;12.13;;;;;;;7.66;100.00;101865.84;5992821;23;20097;-65
2023/04/08 06:05:34;;;;;;;11.68;8.70;;;;;;;7.77;100.00;101870.84;6005751;23;20039;-70
2023/04/08 06:08:00;;;;;;;13.73;9.18;;;;;;;7.37;100.00;101794.16;5995949;23;20097;-69
2023/04/08 06:10:27;;;;;;;21.58;11.90;;;;;;;7.83;100.00;101873.31;5997909;23;20011;-70
2023/04/08 06:12:53;;;;;;;11.38;9.63;;;;;;;8.07;100.00;101878.91;6000880;23;20039;-70
2023/04/08 06:15:21;;;;;;;17.42;11.07;;;;;;;8.25;100.00;101873.22;5992866;23;20055;-70
2023/04/08 06:17:47;;;;;;;16.67;12.93;;;;;;;7.86;100.00;101809.66;6001154;23;20044;-69
2023/04/08 06:20:13;;;;;;;16.25;10.00;;;;;;;8.05;100.00;101875.47;5986516;23;20046;-69
2023/04/08 06:22:40;;;;;;;18.88;12.57;;;;;;;7.97;100.00;101868.63;6002001;23;20355;-69
2023/04/08 06:25:07;;;;;;;16.55;10.63;;;;;;;6.99;100.00;101709.69;5999664;23;20058;-70
2023/04/08 06:27:33;;;;;;;15.52;11.60;;;;;;;7.78;100.00;101867.34;5999933;23;20015;-70
2023/04/08 06:29:59;;;;;;;20.88;11.30;;;;;;;7.73;100.00;101864.81;5993995;23;20043;-68
2023/04/08 06:32:26;;;;;;;15.55;10.60;;;;;;;7.69;100.00;101880.59;5998250;23;20100;-67
2023/04/08 06:34:52;;;;;;;19.20;12.45;;;;;;;7.74;100.00;101878.75;5994580;23;20620;-67
2023/04/08 06:37:19;;;;;;;22.42;11.32;;;;;;;7.77;100.00;101863.00;5995089;23;20039;-67
2023/04/08 06:39:45;;;;;;;24.02;11.82;;;;;;;8.09;100.00;101883.19;6001460;23;20123;-67
2023/04/08 06:42:12;;;;;;;30.33;12.95;;;;;;;8.52;100.00;101887.44;5996139;23;20024;-67
2023/04/08 06:44:38;;;;;;;20.27;11.40;;;;;;;8.39;100.00;101884.22;5991253;23;20050;-67
2023/04/08 06:47:05;;;;;;;15.65;9.60;;;;;;;8.68;100.00;101885.31;5998162;23;20023;-69
2023/04/08 06:49:31;;;;;;;22.50;12.20;;;;;;;9.08;100.00;101892.13;5998308;23;20490;-69
2023/04/08 06:51:57;;;;;;;16.45;11.38;;;;;;;9.02;100.00;101887.06;5991057;23;20107;-67
2023/04/08 06:54:24;;;;;;;25.80;14.55;;;;;;;8.58;100.00;101821.03;6003492;23;20023;-68
2023/04/08 06:56:50;;;;;;;20.08;11.93;;;;;;;9.04;100.00;101882.66;5994479;23;20131;-68
2023/04/08 06:59:17;;;;;;;21.13;14.52;;;;;;;8.97;100.00;101876.69;6002458;23;20466;-68
2023/04/08 07:01:43;;;;;;;27.48;15.10;;;;;;;9.36;100.00;101881.75;5973755;23;20188;-69
2023/04/08 07:04:10;;;;;;;20.85;13.15;;;;;;;9.37;100.00;101824.97;6003904;23;20490;-68
2023/04/08 07:06:36;;;;;;;22.13;13.05;;;;;;;9.32;100.00;101835.59;5995664;23;20039;-70
2023/04/08 07:09:03;;;;;;;24.77;12.40;;;;;;;9.68;100.00;101881.72;5999494;23;20409;-69
2023/04/08 07:11:30;;;;;;;28.35;13.55;;;;;;;9.84;100.00;101892.59;5992460;23;20551;-71
2023/04/08 07:13:56;;;;;;;20.08;12.82;;;;;;;9.90;100.00;101880.19;6007216;23;20038;-70
2023/04/08 07:16:22;;;;;;;20.73;14.10;;;;;;;9.54;100.00;101879.50;5988632;23;20047;-69
2023/04/08 07:18:50;;;;;;;26.00;13.38;;;;;;;9.41;100.00;101823.13;5992924;23;20031;-69
2023/04/08 07:21:17;;;;;;;16.08;12.05;;;;;;;9.65;100.00;101855.63;5992268;23;20030;-69
2023/04/08 07:23:44;;;;;;;25.15;12.23;;;;;;;9.37;100.00;101807.47;5998412;23;20478;-68
2023/04/08 07:26:10;;;;;;;15.85;10.80;;;;;;;9.99;100.00;101879.91;5978980;23;20397;-67
2023/04/08 07:28:36;;;;;;;15.88;11.07;;;;;;;9.89;100.00;101878.47;5966472;23;20292;-69
2023/04/08 07:31:17;;;;;;;21.77;14.00;;;;;;;9.84;100.00;101876.88;5998870;23;20031;-69
2023/04/08 07:33:44;;;;;;;15.55;11.98;;;;;;;9.67;100.00;101870.38;5997791;23;20046;-70
2023/04/08 07:36:12;;;;;;;24.08;13.73;;;;;;;7.67;100.00;101559.25;6001222;23;20031;-70
2023/04/08 07:38:41;;;;;;;20.52;10.73;;;;;;;9.75;100.00;101883.28;5991142;23;20033;-70
2023/04/08 07:41:08;;;;;;;15.68;11.20;;;;;;;9.99;100.00;101877.28;6002297;23;20043;-69
2023/04/08 07:43:35;;;;;;;23.75;11.48;;;;;;;10.34;100.00;101880.59;5992443;23;20026;-70
2023/04/08 07:46:06;;;;;;;21.42;10.68;;;;;;;10.03;100.00;101809.84;6003111;23;20623;-69
2023/04/08 07:48:34;;;;;;;24.98;12.95;;;;;;;10.02;100.00;101783.66;6000355;23;20046;-70
2023/04/08 07:51:05;;;;;;;30.27;13.73;;;;;;;10.42;100.00;101868.97;5997602;23;20034;-69
2023/04/08 07:53:35;;;;;;;24.60;12.63;;;;;;;10.49;100.00;101862.63;5973667;23;20031;-71
2023/04/08 07:56:03;;;;;;;25.77;13.73;;;;;;;9.99;100.00;101797.75;5998756;23;20661;-70
2023/04/08 07:58:30;;;;;;;28.48;14.63;;;;;;;9.79;100.00;101806.25;5995994;23;20026;-68
2023/04/08 08:00:58;;;;;;;26.20;13.57;;;;;;;10.21;100.00;101873.13;6000026;23;20366;-68
2023/04/08 08:03:25;;;;;;;31.08;16.85;;;;;;;10.09;100.00;101863.88;5994801;23;20027;-70
2023/04/08 08:05:51;;;;;;;27.60;14.20;;;;;;;10.13;100.00;101887.34;5972749;23;20143;-67
2023/04/08 08:08:18;;;;;;;32.90;16.23;;;;;;;10.06;100.00;101884.94;5992702;23;20035;-68
2023/04/08 08:10:44;;;;;;;27.42;15.18;;;;;;;10.13;100.00;101889.97;6002828;23;20440;-68
2023/04/08 08:13:15;;;;;;;24.25;12.40;;;;;;;9.87;100.00;101848.81;5985870;23;20021;-68
2023/04/08 08:15:42;;;;;;;30.67;14.90;;;;;;;9.87;100.00;101874.19;5996859;23;20034;-68
2023/04/08 08:18:08;;;;;;;21.10;12.95;;;;;;;9.64;100.00;101835.53;5963435;23;20612;-68
2023/04/08 08:20:35;;;;;;;32.92;15.40;;;;;;;10.01;100.00;101885.09;6002595;23;20075;-68
2023/04/08 08:23:01;;;;;;;30.48;13.70;;;;;;;10.36;100.00;101893.66;6000803;23;20027;-69
2023/04/08 08:25:28;;;;;;;31.80;15.00;;;;;;;10.51;100.00;101884.44;5983631;23;20581;-69
2023/04/08 08:27:54;;;;;;;27.40;12.98;;;;;;;10.61;100.00;101877.97;5965977;23;20680;-69
2023/04/08 08:30:21;;;;;;;34.80;16.25;;;;;;;10.42;100.00;101827.84;5987946;23;20023;-68
2023/04/08 08:32:48;;;;;;;51.05;15.68;;;;;;;10.81;100.00;101879.06;5970965;23;20026;-69
2023/04/08 08:35:15;;;;;;;25.80;15.68;;;;;;;10.92;100.00;101879.53;5995494;23;20030;-68
2023/04/08 08:37:41;;;;;;;33.90;15.18;;;;;;;10.69;100.00;101854.94;6001588;23;21038;-68
2023/04/08 08:40:08;;;;;;;31.92;13.75;;;;;;;9.79;100.00;101811.47;5990808;23;20486;-68
2023/04/08 08:42:35;;;;;;;32.58;14.13;;;;;;;10.21;100.00;101863.50;5998863;23;20510;-68
2023/04/08 08:45:02;;;;;;;24.73;13.65;;;;;;;9.72;100.00;101768.00;5989029;23;20030;-69
2023/04/08 08:47:29;;;;;;;31.77;15.65;;;;;;;10.30;100.00;101863.25;5996737;23;20027;-68
2023/04/08 08:49:56;;;;;;;31.27;15.80;;;;;;;10.49;100.00;101850.34;5979761;23;20035;-68
2023/04/08 08:52:22;;;;;;;27.67;13.43;;;;;;;10.72;100.00;101839.09;5998150;23;20046;-70
2023/04/08 08:54:57;;;;;;;26.25;15.15;;;;;;;10.83;100.00;101875.47;5970601;23;20098;-68
2023/04/08 08:57:23;;;;;;;24.63;12.00;;;;;;;10.74;100.00;101857.41;5986585;23;20086;-68
2023/04/08 08:59:50;;;;;;;26.98;12.90;;;;;;;10.69;100.00;101857.56;6005771;23;20100;-68
2023/04/08 09:02:24;;;;;;;22.23;11.77;;;;;;;10.34;100.00;101832.50;5995134;23;20039;-69
2023/04/08 09:04:57;;;;;;;19.42;13.43;;;;;;;10.52;100.00;101857.25;6002588;23;20280;-68
2023/04/08 09:07:25;;;;;;;31.17;15.90;;;;;;;10.64;100.00;101858.63;5969117;23;20031;-67
2023/04/08 09:09:53;;;;;;;21.33;12.38;;;;;;;9.86;100.00;101796.41;6003745;23;20401;-71
2023/04/08 09:12:20;;;;;;;18.77;13.35;;;;;;;10.21;100.00;101871.38;5986255;23;20023;-68
2023/04/08 09:14:47;;;;;;;27.63;13.35;;;;;;;10.06;100.00;101856.94;5977916;23;20541;-68
2023/04/08 09:17:30;;;;;;;25.58;13.63;;;;;;;10.35;100.00;101877.06;5996609;23;20024;-67
2023/04/08 09:20:08;;;;;;;;;;;;;;;10.05;100.00;101870.13;6003426;23;20094;-68
2023/04/08 09:22:58;;;;;;;15.38;10.45;;;;;;;10.17;100.00;101875.84;5987895;23;20311;-68
2023/04/08 09:25:31;;;;;;;20.33;11.68;;;;;;;10.35;100.00;101882.31;6003959;23;20015;-70
2023/04/08 09:27:58;;;;;;;16.23;10.70;;;;;;;10.60;100.00;101889.38;5993464;23;20020;-69
2023/04/08 09:30:26;;;;;;;19.00;10.77;;;;;;;10.52;100.00;101871.28;5988530;23;20030;-68
2023/04/08 09:32:55;;;;;;;18.85;10.50;;;;;;;10.58;100.00;101875.44;6007273;23;20090;-68
2023/04/08 09:35:22;;;;;;;12.30;8.70;;;;;;;10.38;100.00;101868.22;6001887;23;20106;-69
2023/04/08 09:37:50;;;;;;;11.95;10.13;;;;;;;10.47;100.00;101878.41;6005486;23;20027;-68
2023/04/08 09:40:17;;;;;;;12.00;9.48;;;;;;;10.26;100.00;101877.31;5996318;23;20967;-68
2023/04/08 09:42:50;;;;;;;11.55;9.98;;;;;;;10.08;100.00;101826.31;5994905;23;20012;-69
2023/04/08 09:45:18;;;;;;;14.18;11.18;;;;;;;10.54;100.00;101885.19;5994741;23;20054;-68
2023/04/08 09:48:07;;;;;;;11.98;8.98;;;;;;;10.22;100.00;101882.72;5999010;23;20027;-70
2023/04/08 09:50:41;;;;;;;14.75;9.00;;;;;;;10.46;100.00;101883.72;5975406;23;20023;-69
2023/04/08 09:53:14;;;;;;;10.70;9.38;;;;;;;10.25;100.00;101893.97;5996336;23;20717;-70
2023/04/08 09:55:42;;;;;;;14.70;9.25;;;;;;;10.43;100.00;101895.19;5998405;23;20028;-69
2023/04/08 09:58:17;;;;;;;12.77;9.30;;;;;;;10.37;100.00;101884.88;6006037;23;20031;-69
2023/04/08 10:00:49;;;;;;;13.73;9.65;;;;;;;10.28;100.00;101896.47;5999676;23;20019;-69
2023/04/08 10:03:36;;;;;;;11.97;9.87;;;;;;;10.27;100.00;101897.41;5996371;23;20044;-69
2023/04/08 10:06:03;;;;;;;9.75;8.40;;;;;;;10.26;100.00;101892.19;6004629;23;20059;-69
2023/04/08 10:08:31;;;;;;;16.10;11.38;;;;;;;10.26;100.00;101903.53;5976474;23;20028;-69
2023/04/08 10:10:58;;;;;;;15.85;10.68;;;;;;;10.07;100.00;101898.03;6002278;23;20018;-69
2023/04/08 10:13:27;;;;;;;16.83;12.25;;;;;;;9.95;100.00;101903.66;5988852;23;20487;-69
2023/04/08 10:16:16;;;;;;;15.18;11.88;;;;;;;10.11;100.00;101912.75;6004417;23;20597;-69
2023/04/08 10:18:43;;;;;;;20.23;10.85;;;;;;;10.15;100.00;101908.28;5961963;23;20028;-69
2023/04/08 10:21:36;;;;;;;18.05;10.10;;;;;;;10.47;100.00;101909.91;6004498;23;20031;-68
2023/04/08 10:24:06;;;;;;;16.23;10.57;;;;;;;10.60;100.00;101899.00;5996824;23;20072;-69
2023/04/08 10:26:34;;;;;;;21.45;11.63;;;;;;;10.72;100.00;101902.13;5988701;23;20020;-69
2023/04/08 10:29:29;;;;;;;19.50;13.23;;;;;;;10.73;100.00;101895.94;6009723;23;20059;-68
2023/04/08 10:31:58;;;;;;;25.70;13.13;;;;;;;10.69;100.00;101891.69;5995820;23;20103;-69
2023/04/08 10:34:26;;;;;;;22.85;12.27;;;;;;;10.75;100.00;101886.22;5992816;23;20034;-69
2023/04/08 10:36:55;;;;;;;16.65;13.13;;;;;;;10.64;100.00;101875.22;5984806;23;20225;-69
2023/04/08 10:39:22;;;;;;;19.85;12.77;;;;;;;10.56;100.00;101875.50;6000221;23;20295;-69
2023/04/08 10:41:50;;;;;;;22.35;13.73;;;;;;;10.63;100.00;101867.44;5997525;23;20036;-69
2023/04/08 10:44:25;;;;;;;20.70;14.10;;;;;;;10.82;100.00;101852.75;5999562;23;20532;-69
2023/04/08 10:46:53;;;;;;;19.63;15.07;;;;;;;10.76;100.00;101860.81;5997343;23;20093;-69
2023/04/08 10:49:20;;;;;;;25.70;15.15;;;;;;;10.70;100.00;101854.00;5994591;23;20411;-69
2023/04/08 10:51:47;;;;;;;22.58;14.35;;;;;;;10.73;100.00;101843.41;5995454;23;20478;-68
2023/04/08 10:54:16;;;;;;;29.25;15.27;;;;;;;10.34;100.00;101783.50;5995564;23;20053;-68
2023/04/08 10:56:51;;;;;;;22.30;14.95;;;;;;;10.67;100.00;101848.88;5996241;23;20806;-69
2023/04/08 10:59:33;;;;;;;27.33;17.17;;;;;;;10.80;100.00;101838.81;6005831;23;20098;-68
2023/04/08 11:02:01;;;;;;;27.33;15.93;;;;;;;11.03;100.00;101858.16;5995657;23;20027;-68
2023/04/08 11:04:28;;;;;;;28.75;15.73;;;;;;;10.82;99.22;101775.75;5988106;23;21466;-68
2023/04/08 11:06:54;;;;;;;30.80;16.65;;;;;;;10.68;98.51;101770.97;5961445;23;20034;-68
2023/04/08 11:09:21;;;;;;;30.00;16.33;;;;;;;10.35;98.75;101743.22;5998877;23;20046;-67
2023/04/08 11:11:47;;;;;;;19.80;13.35;;;;;;;10.54;98.94;101809.09;5993447;23;20078;-70
2023/04/08 11:14:18;;;;;;;24.98;16.33;;;;;;;11.16;98.46;101834.03;5992862;23;20031;-68
2023/04/08 11:16:45;;;;;;;33.83;17.50;;;;;;;11.24;96.12;101790.84;5997533;23;20517;-67